Time;durP1;ratioP1;P1;durP2;ratioP2;P2;SDS_P1;SDS_P2;PMS_P1;PMS_P2;Temp;Humidity;BMP_temperature;BMP_pressure;BME280_temperature;BME280_humidity;BME280_pressure;Samples;Min_cycle;Max_cycle;Signal;HPM_P1;HPM_P2
2022/04/19 00:00:04;;;;;;;2.87;1.80;;;;;;;5.28;75.03;99410.88;3146050;28;20091;-74
2022/04/19 00:01:36;;;;;;;2.47;1.70;;;;;;;5.21;75.00;99401.63;3141492;28;20485;-74
2022/04/19 00:03:06;;;;;;;2.55;1.65;;;;;;;5.26;75.02;99412.63;3138083;28;20060;-74
2022/04/19 00:04:38;;;;;;;2.10;1.42;;;;;;;5.25;75.15;99406.63;3145156;28;20052;-74
2022/04/19 00:06:10;;;;;;;1.92;1.48;;;;;;;5.23;75.32;99407.56;3145620;28;20553;-73
2022/04/19 00:07:42;;;;;;;2.30;1.38;;;;;;;5.15;75.45;99412.97;3142960;28;20073;-74
2022/04/19 00:09:17;;;;;;;2.13;1.48;;;;;;;5.15;75.47;99399.22;3141938;28;20060;-74
2022/04/19 00:10:49;;;;;;;2.90;1.60;;;;;;;5.07;75.54;99394.28;3134101;28;20048;-74
2022/04/19 00:12:20;;;;;;;3.42;1.63;;;;;;;5.18;75.51;99407.72;3144785;28;20102;-74
2022/04/19 00:13:51;;;;;;;5.80;1.52;;;;;;;5.13;75.72;99403.56;3146106;28;20052;-74
2022/04/19 00:15:23;;;;;;;2.30;1.48;;;;;;;5.14;75.74;99405.25;3144268;28;20044;-74
2022/04/19 00:16:54;;;;;;;3.00;1.70;;;;;;;5.07;75.80;99402.00;3145954;28;20071;-74
2022/04/19 00:18:27;;;;;;;3.60;2.17;;;;;;;5.07;75.82;99406.34;3141144;28;20090;-74
2022/04/19 00:19:58;;;;;;;2.17;1.25;;;;;;;5.05;75.80;99408.09;3139472;28;20056;-74
2022/04/19 00:21:30;;;;;;;3.05;1.63;;;;;;;5.04;75.72;99411.59;3145047;28;20048;-74
2022/04/19 00:23:05;;;;;;;2.75;1.13;;;;;;;5.02;75.67;99404.72;3145086;28;20052;-74
2022/04/19 00:24:38;;;;;;;3.35;1.90;;;;;;;5.07;75.75;99409.75;3146065;28;20429;-74
2022/04/19 00:26:10;;;;;;;2.92;1.73;;;;;;;5.09;75.72;99402.81;3145747;28;20052;-74
2022/04/19 00:27:41;;;;;;;2.90;1.58;;;;;;;5.09;75.63;99410.56;3145145;28;20052;-74
2022/04/19 00:29:13;;;;;;;2.75;1.40;;;;;;;5.08;75.74;99406.28;3145016;28;20052;-74
2022/04/19 00:30:46;;;;;;;4.45;2.00;;;;;;;5.08;75.61;99408.00;3145857;28;20056;-74
2022/04/19 00:32:18;;;;;;;5.85;1.58;;;;;;;5.01;75.74;99395.28;3146014;28;20052;-74
2022/04/19 00:33:50;;;;;;;2.72;1.65;;;;;;;5.02;75.63;99403.88;3145622;28;20436;-74
2022/04/19 00:35:23;;;;;;;2.42;1.80;;;;;;;5.00;75.61;99400.50;3145568;28;20202;-74
2022/04/19 00:36:55;;;;;;;2.58;1.45;;;;;;;4.94;75.66;99400.66;3145399;28;20053;-74
2022/04/19 00:38:27;;;;;;;2.88;1.63;;;;;;;4.91;75.61;99398.16;3145697;28;20460;-74
2022/04/19 00:40:01;;;;;;;2.55;1.48;;;;;;;4.81;75.72;99392.44;3145569;28;20106;-74
2022/04/19 00:41:33;;;;;;;2.75;1.60;;;;;;;4.83;75.75;99395.00;3145347;28;20052;-74
2022/04/19 00:43:05;;;;;;;2.65;1.92;;;;;;;4.86;75.74;99397.47;3144706;28;20057;-73
2022/04/19 00:44:37;;;;;;;4.43;1.83;;;;;;;4.86;75.88;99400.06;3145603;28;20087;-73
2022/04/19 00:46:09;;;;;;;3.42;1.85;;;;;;;4.85;75.84;99396.63;3145360;28;20751;-74
2022/04/19 00:47:41;;;;;;;2.92;1.65;;;;;;;4.91;75.95;99395.59;3145813;28;20053;-74
2022/04/19 00:49:13;;;;;;;3.17;1.73;;;;;;;4.93;76.11;99401.56;3143947;28;20045;-74
2022/04/19 00:50:45;;;;;;;3.17;1.50;;;;;;;4.94;75.88;99392.91;3131559;28;20049;-74
2022/04/19 00:52:17;;;;;;;3.05;1.88;;;;;;;4.99;75.85;99407.38;3134544;28;20057;-74
2022/04/19 00:53:49;;;;;;;3.83;1.92;;;;;;;5.02;75.87;99401.28;3137826;28;20045;-74
2022/04/19 00:55:23;;;;;;;4.95;1.67;;;;;;;5.06;75.80;99402.03;3143063;28;20052;-74
2022/04/19 00:56:55;;;;;;;3.53;1.77;;;;;;;5.07;75.84;99399.44;3141195;28;20060;-74
2022/04/19 00:58:27;;;;;;;3.80;1.65;;;;;;;4.99;75.85;99378.16;3144563;28;20060;-75
2022/04/19 00:59:59;;;;;;;2.80;1.60;;;;;;;5.12;75.74;99396.72;3146048;28;20048;-74
2022/04/19 01:01:31;;;;;;;1.85;1.40;;;;;;;5.12;75.67;99389.00;3144669;28;20056;-74
2022/04/19 01:03:03;;;;;;;5.22;1.70;;;;;;;5.15;75.61;99394.91;3139022;28;20445;-74
2022/04/19 01:04:35;;;;;;;7.25;1.70;;;;;;;5.13;75.67;99381.19;3145386;28;20053;-74
2022/04/19 01:06:07;;;;;;;2.90;1.98;;;;;;;5.19;75.46;99386.16;3143878;28;20052;-75
2022/04/19 01:07:39;;;;;;;2.85;1.80;;;;;;;5.22;75.43;99390.41;3145749;28;20055;-75
2022/04/19 01:09:11;;;;;;;2.35;1.58;;;;;;;5.25;75.30;99385.13;3139059;28;20047;-74
2022/04/19 01:10:46;;;;;;;2.65;1.40;;;;;;;5.07;75.25;99355.56;3140042;28;20044;-74
2022/04/19 01:14:12;;;;;;;3.83;1.85;;;;;;;5.21;75.15;99386.13;3124922;28;20105;-74
2022/04/19 01:15:46;;;;;;;3.10;1.35;;;;;;;5.21;75.19;99388.72;3137455;28;20051;-75
2022/04/19 01:17:17;;;;;;;2.97;1.42;;;;;;;5.18;75.09;99383.66;3143237;28;20048;-72
2022/04/19 01:18:49;;;;;;;2.83;1.70;;;;;;;5.18;74.94;99388.81;3145198;28;20113;-72
2022/04/19 01:20:21;;;;;;;5.28;1.80;;;;;;;5.18;74.98;99389.66;3145135;28;20525;-74
2022/04/19 01:21:55;;;;;;;3.13;1.70;;;;;;;5.20;75.03;99392.16;3142454;28;20467;-73
2022/04/19 01:23:28;;;;;;;3.25;1.63;;;;;;;5.12;75.00;99382.09;3144905;28;20080;-73
2022/04/19 01:25:00;;;;;;;2.45;1.52;;;;;;;5.19;75.04;99396.50;3145192;28;20053;-73
2022/04/19 01:26:32;;;;;;;3.08;1.60;;;;;;;5.18;74.87;99392.22;3145327;28;20461;-73
2022/04/19 01:28:04;;;;;;;3.25;1.70;;;;;;;5.16;74.94;99388.00;3145046;28;20048;-73
2022/04/19 01:29:37;;;;;;;5.03;1.25;;;;;;;5.05;74.77;99371.97;3136043;28;20111;-73
2022/04/19 01:31:09;;;;;;;3.97;1.57;;;;;;;5.12;74.65;99389.84;3141946;28;20044;-74
2022/04/19 01:32:41;;;;;;;3.70;1.38;;;;;;;5.10;74.69;99376.13;3143514;28;20568;-73
2022/04/19 01:34:12;;;;;;;2.58;1.38;;;;;;;5.16;74.66;99388.84;3144820;28;20052;-73
2022/04/19 01:35:44;;;;;;;3.00;1.67;;;;;;;5.19;74.76;99386.16;3139502;28;20114;-73
2022/04/19 01:37:17;;;;;;;3.80;1.58;;;;;;;5.14;74.68;99380.28;3143329;28;20053;-73
2022/04/19 01:38:49;;;;;;;;;;;;;;;5.20;74.62;99387.00;3145347;28;20056;-73
2022/04/19 01:40:20;;;;;;;3.28;1.70;;;;;;;5.19;74.56;99382.75;3145226;28;19967;-73
2022/04/19 01:41:52;;;;;;;3.30;1.45;;;;;;;5.19;74.59;99383.59;3144638;28;20048;-73
2022/04/19 01:43:23;;;;;;;7.38;2.30;;;;;;;5.20;74.58;99380.09;3144916;28;20122;-73
2022/04/19 01:44:54;;;;;;;3.70;1.95;;;;;;;5.21;74.64;99386.97;3144690;28;20064;-73
2022/04/19 01:46:26;;;;;;;4.03;1.85;;;;;;;5.10;74.56;99368.38;3144455;28;20049;-74
2022/04/19 01:47:59;;;;;;;4.60;1.73;;;;;;;5.20;74.48;99381.84;3143722;28;20526;-75
2022/04/19 01:49:30;;;;;;;4.72;2.00;;;;;;;5.22;74.31;99386.06;3139850;28;20049;-74
2022/04/19 01:51:02;;;;;;;5.85;1.77;;;;;;;5.21;74.41;99380.97;3140919;28;20086;-72
2022/04/19 01:52:35;;;;;;;3.10;1.60;;;;;;;5.21;74.30;99378.38;3141434;28;20256;-73
2022/04/19 01:54:07;;;;;;;4.30;1.88;;;;;;;5.23;74.29;99376.59;3144986;28;20513;-73
2022/04/19 01:55:39;;;;;;;5.43;1.88;;;;;;;5.25;74.19;99377.41;3140032;28;20063;-73
2022/04/19 01:57:09;;;;;;;2.78;1.50;;;;;;;5.25;74.26;99373.06;3145231;28;20611;-73
2022/04/19 01:58:41;;;;;;;4.22;1.83;;;;;;;5.28;74.16;99376.47;3145214;28;20049;-73
2022/04/19 02:00:15;;;;;;;2.70;1.67;;;;;;;5.32;74.14;99375.47;3144162;28;20040;-73
2022/04/19 02:01:47;;;;;;;3.80;1.90;;;;;;;5.20;74.14;99358.59;3140035;28;20098;-73
2022/04/19 02:03:20;;;;;;;2.42;1.30;;;;;;;5.19;74.05;99365.50;3144760;28;20067;-73
2022/04/19 02:04:52;;;;;;;2.95;1.95;;;;;;;5.24;74.04;99368.81;3144943;28;20055;-72
2022/04/19 02:06:24;;;;;;;5.30;2.13;;;;;;;5.24;73.97;99373.97;3145175;28;20057;-73
2022/04/19 02:07:57;;;;;;;2.85;1.70;;;;;;;5.21;74.06;99373.22;3147161;28;20060;-72
2022/04/19 02:09:29;;;;;;;2.78;1.52;;;;;;;5.24;74.06;99371.38;3143991;28;20049;-73
2022/04/19 02:11:01;;;;;;;3.15;1.33;;;;;;;5.17;74.02;99364.69;3142373;28;20430;-73
2022/04/19 02:12:33;;;;;;;3.08;1.73;;;;;;;5.13;74.12;99362.28;3145988;28;20052;-75
2022/04/19 02:14:06;;;;;;;3.25;1.58;;;;;;;5.09;73.82;99364.13;3141047;28;20059;-73
2022/04/19 02:15:38;;;;;;;2.80;1.60;;;;;;;5.08;73.86;99369.31;3146932;28;20540;-72
2022/04/19 02:17:10;;;;;;;3.40;1.40;;;;;;;4.92;73.79;99353.44;3147424;28;20075;-73
2022/04/19 02:18:43;;;;;;;6.88;1.95;;;;;;;5.01;73.78;99361.75;3147542;28;20048;-73
2022/04/19 02:20:16;;;;;;;2.50;1.55;;;;;;;5.07;73.87;99368.47;3146899;28;20088;-72
2022/04/19 02:21:47;;;;;;;3.15;1.50;;;;;;;5.08;73.72;99367.56;3147346;28;20044;-72
2022/04/19 02:23:20;;;;;;;4.07;1.65;;;;;;;5.10;73.82;99365.78;3147145;28;20145;-73
2022/04/19 02:24:52;;;;;;;4.50;1.60;;;;;;;5.06;73.30;99366.78;3147744;28;20052;-72
2022/04/19 02:26:23;;;;;;;2.08;1.58;;;;;;;5.09;73.25;99373.56;3147328;28;20048;-72
2022/04/19 02:27:56;;;;;;;3.55;1.40;;;;;;;5.08;73.18;99367.56;3146988;28;20075;-73
2022/04/19 02:29:28;;;;;;;3.65;1.90;;;;;;;5.06;73.07;99363.34;3146630;28;20048;-72
2022/04/19 02:31:00;;;;;;;2.85;1.48;;;;;;;5.08;73.05;99364.97;3142924;28;20052;-73
2022/04/19 02:32:31;;;;;;;2.90;1.90;;;;;;;5.08;72.96;99357.25;3147270;28;20075;-73
2022/04/19 02:34:03;;;;;;;2.38;1.30;;;;;;;5.10;72.86;99360.63;3146879;28;20052;-73
2022/04/19 02:35:35;;;;;;;2.95;1.40;;;;;;;5.11;72.82;99362.31;3147158;28;20135;-72
2022/04/19 02:37:07;;;;;;;4.05;1.70;;;;;;;5.11;72.87;99361.47;3147196;28;20052;-74
2022/04/19 02:38:40;;;;;;;3.47;1.73;;;;;;;5.03;72.79;99351.41;3146633;28;20052;-73
2022/04/19 02:40:12;;;;;;;2.70;1.52;;;;;;;5.09;72.79;99364.13;3146775;28;20182;-73
2022/04/19 02:41:43;;;;;;;2.35;1.60;;;;;;;5.11;72.78;99371.78;3146839;28;20793;-75
2022/04/19 02:43:16;;;;;;;5.50;2.08;;;;;;;5.13;72.88;99367.44;3146984;28;20075;-74
2022/04/19 02:44:48;;;;;;;3.25;1.75;;;;;;;5.14;72.63;99369.13;3147011;28;20059;-72
2022/04/19 02:46:20;;;;;;;5.22;2.05;;;;;;;5.16;72.91;99372.50;3145913;28;20213;-74
2022/04/19 02:48:03;;;;;;;3.67;1.80;;;;;;;5.12;72.73;99368.34;3147331;28;20057;-73
2022/04/19 02:49:36;;;;;;;3.53;1.90;;;;;;;5.14;72.71;99363.97;3141457;28;20048;-73
2022/04/19 02:51:08;;;;;;;3.83;1.75;;;;;;;5.14;72.65;99366.53;3146802;28;20048;-73
2022/04/19 02:52:40;;;;;;;3.78;1.83;;;;;;;5.14;72.64;99364.78;3142607;28;20097;-74
2022/04/19 02:54:13;;;;;;;3.97;2.00;;;;;;;5.16;72.52;99363.03;3147111;28;20057;-73
2022/04/19 02:55:45;;;;;;;2.15;1.40;;;;;;;5.17;72.31;99369.88;3146724;28;20072;-74
2022/04/19 02:57:18;;;;;;;4.20;1.70;;;;;;;5.11;72.71;99374.38;3146723;28;20047;-73
2022/04/19 02:58:50;;;;;;;2.17;1.55;;;;;;;5.07;72.58;99371.03;3147039;28;20174;-73
2022/04/19 03:00:22;;;;;;;7.72;1.90;;;;;;;5.08;72.69;99370.16;3146957;28;20048;-74
2022/04/19 03:01:54;;;;;;;3.28;2.10;;;;;;;5.04;72.64;99360.81;3146802;28;20127;-73
2022/04/19 03:03:25;;;;;;;4.65;2.03;;;;;;;5.09;72.80;99366.69;3147035;28;20048;-73
2022/04/19 03:04:57;;;;;;;4.05;1.60;;;;;;;4.95;72.75;99341.28;3146991;28;20055;-74
2022/04/19 03:06:28;;;;;;;5.65;2.25;;;;;;;5.10;72.93;99376.13;3146852;28;20122;-74
2022/04/19 03:08:00;;;;;;;3.17;1.98;;;;;;;5.13;72.85;99381.19;3146567;28;20525;-73
2022/04/19 03:09:33;;;;;;;5.90;1.80;;;;;;;5.15;72.69;99378.56;3146664;28;20397;-73
2022/04/19 03:11:05;;;;;;;3.17;1.73;;;;;;;5.19;72.79;99380.16;3146427;28;20048;-73
2022/04/19 03:12:38;;;;;;;4.25;2.17;;;;;;;5.20;72.73;99377.53;3135813;28;20101;-73
2022/04/19 03:14:11;;;;;;;3.92;1.95;;;;;;;5.22;72.76;99375.75;3146158;28;20118;-74
2022/04/19 03:15:43;;;;;;;3.72;1.88;;;;;;;5.23;72.76;99384.31;3146548;28;20052;-74
2022/04/19 03:17:14;;;;;;;4.80;1.70;;;;;;;5.25;72.72;99380.81;3146548;28;20067;-73
2022/04/19 03:18:46;;;;;;;5.13;2.03;;;;;;;5.12;72.64;99364.03;3140886;28;20484;-75
2022/04/19 03:20:18;;;;;;;6.03;2.17;;;;;;;5.28;72.65;99379.03;3143092;28;20515;-73
2022/04/19 03:21:50;;;;;;;7.80;1.95;;;;;;;5.24;72.65;99373.97;3137313;28;20509;-74
2022/04/19 03:29:12;;;;;;;4.03;2.78;;;;;;;5.33;72.64;99382.34;3071894;28;20424;-73
2022/04/19 03:30:44;;;;;;;;;;;;;;;5.31;72.58;99379.78;3080483;28;20425;-72
2022/04/19 03:32:16;;;;;;;5.80;3.10;;;;;;;5.26;72.55;99376.50;3125640;28;19972;-73
2022/04/19 03:33:49;;;;;;;5.00;3.10;;;;;;;5.31;72.76;99386.69;3145014;28;20052;-72
2022/04/19 03:35:20;;;;;;;6.90;2.60;;;;;;;5.32;72.79;99378.88;3145055;28;20056;-73
2022/04/19 03:36:52;;;;;;;6.10;2.88;;;;;;;5.36;72.77;99385.66;3137830;28;20052;-73
2022/04/19 03:38:23;;;;;;;4.93;2.50;;;;;;;5.35;72.83;99383.13;3143452;28;20053;-73
2022/04/19 03:39:55;;;;;;;4.20;2.60;;;;;;;5.33;72.83;99384.91;3141890;28;20048;-73
2022/04/19 03:41:28;;;;;;;4.28;2.50;;;;;;;5.36;72.84;99383.09;3145780;28;20055;-72
2022/04/19 03:43:00;;;;;;;5.57;2.40;;;;;;;5.35;72.95;99391.69;3142859;28;20057;-73
2022/04/19 03:44:31;;;;;;;5.50;2.53;;;;;;;5.37;73.01;99384.75;3146484;28;20057;-72
2022/04/19 03:46:03;;;;;;;4.32;2.33;;;;;;;5.37;73.09;99383.91;3141758;28;20070;-73
2022/04/19 03:47:34;;;;;;;6.05;2.67;;;;;;;5.36;73.14;99383.09;3141264;28;20299;-73
2022/04/19 03:49:06;;;;;;;3.55;2.45;;;;;;;5.34;73.11;99384.00;3143336;28;20533;-73
2022/04/19 03:50:37;;;;;;;3.67;2.58;;;;;;;5.35;73.05;99380.53;3145867;28;20508;-73
2022/04/19 03:52:09;;;;;;;5.85;2.90;;;;;;;5.35;73.06;99383.13;3143232;28;20052;-73
2022/04/19 03:53:41;;;;;;;5.30;2.80;;;;;;;5.36;73.36;99380.50;3145822;28;20078;-73
2022/04/19 03:55:13;;;;;;;7.30;2.42;;;;;;;5.34;73.48;99384.00;3145210;28;20048;-73
2022/04/19 03:56:45;;;;;;;5.35;2.45;;;;;;;5.30;73.53;99387.59;3140379;28;20106;-73
2022/04/19 03:58:17;;;;;;;6.50;2.97;;;;;;;5.20;73.65;99377.53;3138240;28;20041;-73
2022/04/19 03:59:49;;;;;;;4.60;2.70;;;;;;;5.15;73.99;99383.75;3134624;28;20056;-75
2022/04/19 04:01:21;;;;;;;6.63;2.58;;;;;;;5.05;74.32;99370.25;3138873;28;20052;-76
2022/04/19 04:02:53;;;;;;;6.90;2.63;;;;;;;5.09;74.51;99384.75;3146128;28;20059;-75
2022/04/19 04:04:26;;;;;;;6.05;3.45;;;;;;;5.11;74.64;99390.69;3146204;28;20052;-73
2022/04/19 04:05:58;;;;;;;7.68;3.17;;;;;;;5.14;74.62;99392.34;3145566;28;20159;-73
2022/04/19 04:07:30;;;;;;;7.72;2.78;;;;;;;5.01;74.87;99361.75;3145941;28;20056;-73
2022/04/19 04:09:02;;;;;;;5.03;2.85;;;;;;;5.15;75.05;99387.16;3146001;28;20053;-73
2022/04/19 04:10:33;;;;;;;7.32;3.13;;;;;;;5.16;75.04;99388.84;3145934;28;20052;-72
2022/04/19 04:12:09;;;;;;;5.88;3.28;;;;;;;5.15;75.26;99391.47;3146120;28;20044;-72
2022/04/19 04:13:41;;;;;;;4.28;2.95;;;;;;;5.13;75.64;99396.66;3145853;28;20440;-74
2022/04/19 04:15:13;;;;;;;6.00;3.25;;;;;;;5.12;75.68;99400.16;3145750;28;20045;-72
2022/04/19 04:16:45;;;;;;;4.85;3.25;;;;;;;5.15;75.74;99394.06;3146102;28;20063;-74
2022/04/19 04:18:17;;;;;;;5.95;3.33;;;;;;;5.17;75.89;99397.41;3145783;28;20040;-73
2022/04/19 04:19:48;;;;;;;5.95;2.92;;;;;;;4.99;76.04;99378.16;3145666;28;20575;-73
2022/04/19 04:21:20;;;;;;;6.25;3.25;;;;;;;5.16;75.78;99399.16;3145495;28;20049;-74
2022/04/19 04:22:52;;;;;;;5.78;3.33;;;;;;;5.21;75.75;99404.19;3145751;28;20048;-73
2022/04/19 04:24:24;;;;;;;6.80;3.78;;;;;;;5.23;75.90;99408.44;3145895;28;20454;-74
2022/04/19 04:25:56;;;;;;;9.70;3.50;;;;;;;5.23;76.00;99407.56;3146152;28;20061;-74
2022/04/19 04:27:29;;;;;;;6.30;2.95;;;;;;;5.17;76.31;99410.31;3145560;28;20102;-73
2022/04/19 04:29:01;;;;;;;6.82;3.75;;;;;;;5.10;76.56;99411.41;3145131;28;20468;-74
2022/04/19 04:30:33;;;;;;;4.68;3.22;;;;;;;5.03;76.50;99405.59;3145786;28;20045;-75
2022/04/19 04:32:05;;;;;;;6.72;3.70;;;;;;;5.02;76.73;99411.63;3146165;28;20127;-73
2022/04/19 04:33:37;;;;;;;5.22;3.72;;;;;;;5.02;76.90;99414.19;3140746;28;20106;-73
2022/04/19 04:35:10;;;;;;;7.32;3.38;;;;;;;5.01;77.02;99407.34;3137143;28;20060;-73
2022/04/19 04:36:41;;;;;;;5.50;3.00;;;;;;;4.99;76.98;99414.28;3142797;28;20143;-73
2022/04/19 04:38:13;;;;;;;6.15;3.60;;;;;;;5.01;76.92;99421.09;3144410;28;20122;-73
2022/04/19 04:39:45;;;;;;;6.93;3.42;;;;;;;5.00;77.01;99413.41;3145259;28;20483;-74
2022/04/19 04:41:17;;;;;;;5.93;3.70;;;;;;;5.07;76.85;99421.81;3145419;28;20553;-73
2022/04/19 04:42:50;;;;;;;7.00;3.58;;;;;;;5.09;76.90;99425.19;3145589;28;20045;-75
2022/04/19 04:44:22;;;;;;;6.65;3.70;;;;;;;5.13;76.81;99427.66;3139437;28;20120;-74
2022/04/19 04:49:39;;;;;;;4.28;2.70;;;;;;;5.11;76.71;99439.75;3145121;28;20084;-73
2022/04/19 04:51:11;;;;;;;5.85;3.35;;;;;;;5.12;76.70;99438.88;3145816;28;20049;-73
2022/04/19 04:52:43;;;;;;;10.40;3.05;;;;;;;5.14;76.67;99438.81;3145367;28;20052;-74
2022/04/19 04:54:15;;;;;;;7.60;3.22;;;;;;;5.16;76.79;99435.28;3139313;28;20048;-73
2022/04/19 04:55:46;;;;;;;4.75;2.72;;;;;;;5.18;76.78;99436.13;3145571;28;20114;-73
2022/04/19 04:57:20;;;;;;;7.72;3.42;;;;;;;5.20;76.95;99433.47;3145423;28;20052;-74
2022/04/19 04:58:53;;;;;;;4.80;2.85;;;;;;;5.23;76.98;99439.41;3145537;28;20489;-74
2022/04/19 05:00:25;;;;;;;7.53;3.20;;;;;;;5.26;76.97;99446.19;3145079;28;20071;-73
2022/04/19 05:01:57;;;;;;;4.03;2.60;;;;;;;5.27;76.85;99441.91;3144940;28;20521;-73
2022/04/19 05:03:29;;;;;;;5.47;3.03;;;;;;;5.29;76.62;99445.25;3145245;28;20436;-74
2022/04/19 05:05:01;;;;;;;7.75;3.42;;;;;;;5.29;76.80;99437.53;3145409;28;20483;-73
2022/04/19 05:06:33;;;;;;;6.65;2.92;;;;;;;5.21;76.61;99436.03;3139042;28;20052;-74
2022/04/19 05:08:06;;;;;;;4.20;2.95;;;;;;;5.22;76.60;99436.88;3145094;28;20087;-72
2022/04/19 05:09:38;;;;;;;3.33;2.10;;;;;;;5.17;76.53;99436.13;3144889;28;20048;-73
2022/04/19 05:11:10;;;;;;;3.75;2.53;;;;;;;5.18;76.28;99440.44;3143729;28;20069;-75
2022/04/19 05:12:42;;;;;;;5.28;2.83;;;;;;;5.19;76.32;99442.13;3145406;28;20559;-73
2022/04/19 05:14:15;;;;;;;4.80;2.75;;;;;;;5.21;76.22;99441.19;3145301;28;20048;-73
2022/04/19 05:15:47;;;;;;;4.40;2.15;;;;;;;5.21;76.10;99445.50;3144929;28;20063;-73
2022/04/19 05:17:19;;;;;;;3.88;2.20;;;;;;;5.19;75.93;99448.13;3144928;28;20441;-73
2022/04/19 05:18:50;;;;;;;4.07;2.00;;;;;;;5.22;75.77;99440.28;3145027;28;20074;-73
2022/04/19 05:20:22;;;;;;;3.88;2.20;;;;;;;5.27;75.73;99444.50;3145270;28;20052;-73
2022/04/19 05:21:54;;;;;;;5.03;1.98;;;;;;;5.30;75.85;99442.66;3145330;28;20063;-74
2022/04/19 05:23:26;;;;;;;3.53;1.77;;;;;;;5.31;75.85;99444.34;3144818;28;20052;-75
2022/04/19 05:24:58;;;;;;;4.57;1.77;;;;;;;5.35;75.54;99442.50;3144824;28;20087;-73
2022/04/19 05:26:30;;;;;;;3.53;1.80;;;;;;;5.37;75.41;99440.72;3145208;28;20109;-73
2022/04/19 05:28:03;;;;;;;5.05;2.05;;;;;;;5.38;75.15;99432.94;3144804;28;20045;-73
2022/04/19 05:29:36;;;;;;;3.33;1.88;;;;;;;5.40;75.05;99440.63;3140885;28;20052;-74
2022/04/19 05:31:08;;;;;;;4.20;1.60;;;;;;;5.42;74.77;99434.53;3144684;28;20047;-73
2022/04/19 05:32:40;;;;;;;2.35;1.40;;;;;;;5.46;74.75;99438.72;3139857;28;20067;-73
2022/04/19 05:34:12;;;;;;;5.40;2.15;;;;;;;5.45;74.32;99436.19;3145278;28;20529;-73
2022/04/19 05:35:44;;;;;;;4.13;1.60;;;;;;;5.43;73.87;99437.97;3145026;28;20719;-75
2022/04/19 05:37:16;;;;;;;3.35;1.80;;;;;;;5.40;73.60;99425.97;3144965;28;20063;-73
2022/04/19 05:38:52;;;;;;;3.95;1.77;;;;;;;5.47;73.52;99434.38;3145169;28;20118;-75
2022/04/19 05:40:24;;;;;;;2.30;1.80;;;;;;;5.45;73.49;99434.44;3139587;28;20053;-73
2022/04/19 05:41:56;;;;;;;2.92;1.70;;;;;;;5.47;73.54;99439.53;3144582;28;20474;-73
2022/04/19 05:43:28;;;;;;;2.65;1.58;;;;;;;5.52;73.56;99445.44;3144819;28;20215;-73
2022/04/19 05:45:01;;;;;;;3.50;1.70;;;;;;;5.57;73.59;99445.31;3144198;28;20075;-73
2022/04/19 05:46:35;;;;;;;4.13;1.80;;;;;;;5.58;73.42;99439.22;3144973;28;20579;-73
2022/04/19 05:48:07;;;;;;;3.40;1.77;;;;;;;5.55;73.13;99444.50;3145038;28;20048;-72
2022/04/19 05:49:39;;;;;;;2.47;1.67;;;;;;;5.56;72.98;99447.03;3144871;28;20049;-73
2022/04/19 05:51:11;;;;;;;4.38;1.80;;;;;;;5.55;73.02;99440.16;3144962;28;20049;-74
2022/04/19 05:52:43;;;;;;;4.25;2.25;;;;;;;5.53;73.17;99441.97;3144473;28;20126;-74
2022/04/19 05:54:15;;;;;;;4.30;2.63;;;;;;;5.58;73.09;99444.41;3145155;28;20122;-74
2022/04/19 05:55:47;;;;;;;7.35;2.22;;;;;;;5.57;72.94;99448.72;3144496;28;20505;-74
2022/04/19 05:57:18;;;;;;;5.47;2.60;;;;;;;5.55;72.71;99449.66;3144600;28;21900;-74
2022/04/19 05:58:50;;;;;;;4.45;2.83;;;;;;;5.57;72.64;99451.31;3145077;28;20048;-74
2022/04/19 06:00:23;;;;;;;7.35;2.55;;;;;;;5.60;72.70;99453.81;3144372;28;20049;-74
2022/04/19 06:05:34;;;;;;;5.30;2.20;;;;;;;5.64;72.53;99439.88;3145104;28;20064;-74
2022/04/19 06:07:06;;;;;;;3.45;2.13;;;;;;;5.82;72.48;99459.13;3144525;28;20942;-74
2022/04/19 06:08:38;;;;;;;2.13;1.60;;;;;;;5.74;72.14;99444.75;3144944;28;20075;-74
2022/04/19 06:10:10;;;;;;;3.47;1.70;;;;;;;5.85;72.05;99461.63;3144757;28;20056;-74
2022/04/19 06:11:42;;;;;;;5.80;2.00;;;;;;;5.95;71.93;99463.97;3144514;28;20064;-74
2022/04/19 06:13:13;;;;;;;7.75;2.00;;;;;;;5.97;71.72;99454.41;3144736;28;20492;-74
2022/04/19 06:14:45;;;;;;;5.03;1.77;;;;;;;6.05;71.51;99467.94;3144809;28;20053;-74
2022/04/19 06:16:19;;;;;;;2.72;1.70;;;;;;;6.06;71.33;99465.31;3144865;28;20052;-73
2022/04/19 06:17:50;;;;;;;5.60;2.25;;;;;;;6.08;70.72;99475.59;3144596;28;20132;-73
2022/04/19 06:19:22;;;;;;;5.32;2.00;;;;;;;6.03;70.31;99472.31;3145097;28;20048;-74
2022/04/19 06:20:54;;;;;;;3.85;2.10;;;;;;;6.04;70.12;99468.84;3141966;28;20059;-74
2022/04/19 06:22:27;;;;;;;8.02;2.13;;;;;;;6.04;69.95;99477.44;3144579;28;20094;-74
2022/04/19 06:23:59;;;;;;;4.95;1.77;;;;;;;6.07;70.03;99474.75;3144690;28;20131;-74
2022/04/19 06:25:31;;;;;;;6.88;3.05;;;;;;;6.10;69.99;99473.81;3144550;28;20049;-74
2022/04/19 06:27:03;;;;;;;4.10;2.03;;;;;;;6.10;69.99;99469.50;3140163;28;20470;-74
2022/04/19 06:28:35;;;;;;;4.72;2.47;;;;;;;6.14;69.85;99475.41;3138119;28;20060;-74
2022/04/19 06:30:08;;;;;;;4.95;2.45;;;;;;;6.15;69.86;99472.78;3144086;28;20103;-74
2022/04/19 06:31:41;;;;;;;2.90;1.70;;;;;;;6.19;69.52;99470.09;3144644;28;20528;-74
2022/04/19 06:33:13;;;;;;;;;;;;;;;6.15;69.21;99470.19;3145465;28;20967;-74
2022/04/19 06:34:45;;;;;;;4.88;1.88;;;;;;;5.97;69.22;99452.66;3144811;28;20389;-74
2022/04/19 06:36:17;;;;;;;8.38;1.83;;;;;;;6.15;68.99;99484.84;3145205;28;20063;-74
2022/04/19 06:37:49;;;;;;;2.80;1.85;;;;;;;6.09;68.60;99482.47;3144320;28;20099;-74
2022/04/19 06:39:21;;;;;;;3.60;1.83;;;;;;;6.06;68.81;99475.66;3144825;28;20594;-74
2022/04/19 06:40:53;;;;;;;3.60;1.50;;;;;;;6.07;68.95;99484.25;3144858;28;20106;-74
2022/04/19 06:42:24;;;;;;;7.65;1.92;;;;;;;6.09;69.07;99488.50;3144502;28;20055;-74
2022/04/19 06:43:58;;;;;;;2.90;1.40;;;;;;;6.04;68.75;99482.63;3144755;28;20483;-74
2022/04/19 06:45:29;;;;;;;;;;;;;;;6.04;68.67;99485.22;3139437;28;20053;-74
2022/04/19 06:47:03;;;;;;;3.55;1.85;;;;;;;6.03;68.91;99475.75;3135785;28;19943;-74
2022/04/19 06:48:35;;;;;;;;;;;;;;;6.07;68.82;99484.25;3145336;28;20048;-74
2022/04/19 06:50:08;;;;;;;4.18;1.70;;;;;;;6.04;68.89;99487.78;3144517;28;19943;-74
2022/04/19 06:51:39;;;;;;;6.18;2.67;;;;;;;6.06;68.87;99488.59;3138457;28;20078;-74
2022/04/19 06:53:11;;;;;;;3.90;1.90;;;;;;;6.09;68.90;99491.09;3146127;28;20049;-74
2022/04/19 06:54:43;;;;;;;3.78;1.90;;;;;;;6.12;68.58;99482.34;3146930;28;20508;-74
2022/04/19 06:56:15;;;;;;;2.50;1.77;;;;;;;6.14;68.20;99491.75;3147259;28;20049;-74
2022/04/19 06:57:47;;;;;;;3.13;1.83;;;;;;;6.10;67.46;99489.34;3146922;28;20139;-74
2022/04/19 06:59:21;;;;;;;5.28;2.00;;;;;;;6.08;67.40;99494.53;3146936;28;20048;-75
2022/04/19 07:00:52;;;;;;;;;;;;;;;6.12;67.55;99492.69;3140526;28;20102;-74
2022/04/19 07:02:25;;;;;;;8.57;2.03;;;;;;;6.13;67.60;99499.59;3131924;28;19928;-74
2022/04/19 07:03:57;;;;;;;4.10;1.77;;;;;;;6.13;67.72;99491.81;3141780;28;20496;-74
2022/04/19 07:05:29;;;;;;;4.28;1.95;;;;;;;6.23;67.82;99503.56;3146757;28;20075;-74
2022/04/19 07:07:03;;;;;;;4.07;2.13;;;;;;;6.20;67.75;99484.72;3142218;28;20044;-74
2022/04/19 07:08:35;;;;;;;3.45;2.25;;;;;;;6.32;67.95;99505.00;3142509;28;20139;-74
2022/04/19 07:10:10;;;;;;;4.88;2.88;;;;;;;6.25;67.70;99501.75;3143122;28;20122;-74
2022/04/19 07:11:42;;;;;;;4.32;2.50;;;;;;;6.18;67.69;99500.25;3137496;28;20052;-73
2022/04/19 07:13:14;;;;;;;5.60;3.67;;;;;;;6.12;67.95;99503.03;3146812;28;20377;-73
2022/04/19 07:14:46;;;;;;;4.07;2.63;;;;;;;6.02;67.94;99492.16;3146824;28;20048;-73
2022/04/19 07:16:17;;;;;;;7.25;3.03;;;;;;;5.96;67.80;99487.19;3146783;28;20113;-73
2022/04/19 07:17:51;;;;;;;4.72;3.05;;;;;;;5.96;67.45;99494.94;3145537;28;20056;-74
2022/04/19 07:19:22;;;;;;;3.92;3.10;;;;;;;5.88;67.74;99499.44;3146590;28;20052;-74
2022/04/19 07:26:40;;;;;;;10.02;3.90;;;;;;;5.78;68.24;99493.72;3146476;28;20048;-73
2022/04/19 07:28:12;;;;;;;5.28;3.20;;;;;;;5.87;68.00;99496.03;3144580;28;20049;-73
2022/04/19 07:29:44;;;;;;;4.25;2.95;;;;;;;5.91;68.15;99501.94;3145726;28;20433;-73
2022/04/19 07:31:16;;;;;;;4.70;3.00;;;;;;;5.97;68.12;99498.34;3146293;28;20632;-73
2022/04/19 07:32:48;;;;;;;4.45;2.58;;;;;;;6.05;67.93;99499.81;3146372;28;20213;-73
2022/04/19 07:34:21;;;;;;;6.13;2.95;;;;;;;6.15;67.76;99500.34;3144182;28;20107;-73
2022/04/19 07:35:54;;;;;;;7.65;2.80;;;;;;;6.20;67.45;99495.88;3140268;28;20114;-73
2022/04/19 07:37:25;;;;;;;3.00;2.17;;;;;;;6.15;66.87;99496.06;3144069;28;20059;-73
2022/04/19 07:38:58;;;;;;;5.10;2.60;;;;;;;6.06;66.33;99487.72;3141836;28;20155;-74
2022/04/19 07:40:31;;;;;;;4.70;2.60;;;;;;;6.13;66.14;99508.19;3146472;28;20064;-74